Time;durP1;ratioP1;P1;durP2;ratioP2;P2;SDS_P1;SDS_P2;PMS_P1;PMS_P2;Temp;Humidity;BMP_temperature;BMP_pressure;BME280_temperature;BME280_humidity;BME280_pressure;Samples;Min_cycle;Max_cycle;Signal;HPM_P1;HPM_P2
2021/07/05 00:00:55;;;;;;;1.20;0.47;;;;;;;;;;5011370;28;20029;-76
2021/07/05 00:03:20;;;;;;;2.53;0.50;;;;;;;;;;5028908;28;20052;-76
2021/07/05 00:05:46;;;;;;;1.77;0.40;;;;;;;;;;4997731;28;20033;-76
2021/07/05 00:08:11;;;;;;;1.33;0.50;;;;;;;;;;5014337;28;20052;-75
2021/07/05 00:10:37;;;;;;;0.88;0.60;;;;;;;;;;5013960;28;20060;-76
2021/07/05 00:13:03;;;;;;;1.25;0.40;;;;;;;;;;5014263;28;20054;-76
2021/07/05 00:15:29;;;;;;;1.20;0.57;;;;;;;;;;5014252;28;20419;-76
2021/07/05 00:17:57;;;;;;;1.75;0.63;;;;;;;;;;4997961;28;20057;-75
2021/07/05 00:20:22;;;;;;;2.55;0.50;;;;;;;;;;4997474;28;20037;-76
2021/07/05 00:22:48;;;;;;;1.60;0.50;;;;;;;;;;4997568;28;20103;-76
2021/07/05 00:25:14;;;;;;;1.88;0.40;;;;;;;;;;5013738;28;20033;-76
2021/07/05 00:27:40;;;;;;;0.63;0.30;;;;;;;;;;4997708;28;20030;-76
2021/07/05 00:30:06;;;;;;;2.20;0.70;;;;;;;;;;5014221;28;20039;-76
2021/07/05 00:32:34;;;;;;;1.02;0.60;;;;;;;;;;5014322;28;20038;-76
2021/07/05 00:34:59;;;;;;;1.40;0.30;;;;;;;;;;5030122;28;20034;-76
2021/07/05 00:37:25;;;;;;;1.15;0.45;;;;;;;;;;5013866;28;20037;-76
2021/07/05 00:39:50;;;;;;;1.42;0.25;;;;;;;;;;5013525;28;20124;-76
2021/07/05 00:42:16;;;;;;;0.88;0.40;;;;;;;;;;5014394;28;20033;-78
2021/07/05 00:44:41;;;;;;;1.67;0.50;;;;;;;;;;4997693;28;20029;-77
2021/07/05 00:47:07;;;;;;;0.75;0.38;;;;;;;;;;4981642;28;20491;-77
2021/07/05 00:49:32;;;;;;;1.52;0.30;;;;;;;;;;5002251;28;20475;-78
2021/07/05 00:51:58;;;;;;;1.75;0.60;;;;;;;;;;5013994;28;20037;-77
2021/07/05 00:54:23;;;;;;;2.00;0.30;;;;;;;;;;5013325;28;20033;-77
2021/07/05 00:56:49;;;;;;;0.82;0.40;;;;;;;;;;4997981;28;20116;-77
2021/07/05 00:59:15;;;;;;;1.55;0.60;;;;;;;;;;5013816;28;20079;-78
2021/07/05 01:01:40;;;;;;;1.55;0.40;;;;;;;;;;5013375;28;20116;-77
2021/07/05 01:04:06;;;;;;;0.75;0.30;;;;;;;;;;4997561;28;20057;-77
2021/07/05 01:06:31;;;;;;;1.25;0.57;;;;;;;;;;4996885;28;20033;-77
2021/07/05 01:08:57;;;;;;;1.27;0.60;;;;;;;;;;4997458;28;20111;-77
2021/07/05 01:11:23;;;;;;;1.30;0.40;;;;;;;;;;4997198;28;20099;-76
2021/07/05 01:13:49;;;;;;;1.00;0.40;;;;;;;;;;4997154;28;20108;-76
2021/07/05 01:16:15;;;;;;;1.52;0.32;;;;;;;;;;5013424;28;20039;-77
2021/07/05 01:18:40;;;;;;;1.45;0.47;;;;;;;;;;5013544;28;20022;-78
2021/07/05 01:21:06;;;;;;;1.65;0.40;;;;;;;;;;4997268;28;20038;-78
2021/07/05 01:23:31;;;;;;;1.02;0.50;;;;;;;;;;4996795;28;20044;-78
2021/07/05 01:25:57;;;;;;;1.65;0.50;;;;;;;;;;4997290;28;20038;-77
2021/07/05 01:28:22;;;;;;;1.20;0.57;;;;;;;;;;4997151;28;20027;-78
2021/07/05 01:30:48;;;;;;;1.05;0.57;;;;;;;;;;4997101;28;20029;-78
2021/07/05 01:33:15;;;;;;;2.10;0.98;;;;;;;;;;5016400;28;20029;-78
2021/07/05 01:35:41;;;;;;;1.20;0.50;;;;;;;;;;5017362;28;20387;-78
2021/07/05 01:38:19;;;;;;;1.92;0.60;;;;;;;;;;5016083;28;20037;-78
2021/07/05 01:40:51;;;;;;;1.85;0.40;;;;;;;;;;5016035;28;20029;-81
2021/07/05 01:43:16;;;;;;;1.20;0.40;;;;;;;;;;5001265;28;20037;-80
2021/07/05 01:45:42;;;;;;;0.85;0.40;;;;;;;;;;5000613;28;20037;-80
2021/07/05 01:48:08;;;;;;;1.40;0.47;;;;;;;;;;5000602;28;20033;-80
2021/07/05 01:50:34;;;;;;;0.95;0.30;;;;;;;;;;5016349;28;20042;-79
2021/07/05 01:52:59;;;;;;;1.35;0.80;;;;;;;;;;5016276;28;20388;-80
2021/07/05 01:55:31;;;;;;;1.52;0.60;;;;;;;;;;5000380;28;20033;-80
2021/07/05 01:57:57;;;;;;;1.45;0.52;;;;;;;;;;5016930;28;20048;-80
2021/07/05 02:00:23;;;;;;;1.95;0.40;;;;;;;;;;5000478;28;20064;-79
2021/07/05 02:02:48;;;;;;;4.53;0.57;;;;;;;;;;5016480;28;20037;-80
2021/07/05 02:05:16;;;;;;;0.77;0.40;;;;;;;;;;4999722;28;20041;-79
2021/07/05 02:07:42;;;;;;;1.10;0.50;;;;;;;;;;5016343;28;20029;-79
2021/07/05 02:10:09;;;;;;;0.80;0.30;;;;;;;;;;5016562;28;20049;-78
2021/07/05 02:12:36;;;;;;;1.45;0.43;;;;;;;;;;4999871;28;20113;-78
2021/07/05 02:15:01;;;;;;;2.40;0.30;;;;;;;;;;5016648;28;20037;-78
2021/07/05 02:17:27;;;;;;;1.63;0.30;;;;;;;;;;5000379;28;20503;-79
2021/07/05 02:19:52;;;;;;;1.75;0.40;;;;;;;;;;5016367;28;20037;-78
2021/07/05 02:22:18;;;;;;;2.50;0.40;;;;;;;;;;5015799;28;20021;-79
2021/07/05 02:24:43;;;;;;;1.58;0.55;;;;;;;;;;5000207;28;20038;-79
2021/07/05 02:27:09;;;;;;;0.85;0.30;;;;;;;;;;5015873;28;20361;-79
2021/07/05 02:29:35;;;;;;;3.70;0.85;;;;;;;;;;4996528;28;20034;-79
2021/07/05 02:32:00;;;;;;;1.33;0.40;;;;;;;;;;5012486;28;20030;-78
2021/07/05 02:34:26;;;;;;;1.88;0.47;;;;;;;;;;5012385;28;20521;-79
2021/07/05 02:36:51;;;;;;;0.63;0.40;;;;;;;;;;5012574;28;20388;-78
2021/07/05 02:39:18;;;;;;;1.20;0.25;;;;;;;;;;5012333;28;20037;-79
2021/07/05 02:41:43;;;;;;;1.30;0.30;;;;;;;;;;5012497;28;20065;-78
2021/07/05 02:44:09;;;;;;;1.33;0.40;;;;;;;;;;5028362;28;20130;-79
2021/07/05 02:46:34;;;;;;;1.70;0.38;;;;;;;;;;4996416;28;20045;-78
2021/07/05 02:49:00;;;;;;;1.67;0.35;;;;;;;;;;5015811;28;20025;-79
2021/07/05 02:51:25;;;;;;;1.08;0.35;;;;;;;;;;4999088;28;20053;-78
2021/07/05 02:53:52;;;;;;;1.10;0.30;;;;;;;;;;4998868;28;20048;-78
2021/07/05 02:56:17;;;;;;;1.25;0.40;;;;;;;;;;5015438;28;20033;-78
2021/07/05 02:58:43;;;;;;;1.40;0.57;;;;;;;;;;4999131;28;20095;-78
2021/07/05 03:01:08;;;;;;;1.10;0.20;;;;;;;;;;4999152;28;20033;-79
2021/07/05 03:03:34;;;;;;;1.13;0.30;;;;;;;;;;5031530;28;20061;-79
2021/07/05 03:06:00;;;;;;;0.90;0.30;;;;;;;;;;5015086;28;20029;-78
2021/07/05 03:08:26;;;;;;;1.17;0.38;;;;;;;;;;4998919;28;20076;-78
2021/07/05 03:10:52;;;;;;;0.43;0.25;;;;;;;;;;4999013;28;20056;-78
2021/07/05 03:13:18;;;;;;;0.73;0.30;;;;;;;;;;4998618;28;20502;-78
2021/07/05 03:15:44;;;;;;;3.42;0.40;;;;;;;;;;4982561;28;20439;-78
2021/07/05 03:18:09;;;;;;;0.80;0.30;;;;;;;;;;5014882;28;20090;-78
2021/07/05 03:20:37;;;;;;;1.05;0.40;;;;;;;;;;5014637;28;20108;-78
2021/07/05 03:23:03;;;;;;;1.88;0.43;;;;;;;;;;4998813;28;20119;-78
2021/07/05 03:25:29;;;;;;;2.15;0.55;;;;;;;;;;4998700;28;20508;-79
2021/07/05 03:27:55;;;;;;;1.80;0.50;;;;;;;;;;4995266;28;20391;-78
2021/07/05 03:30:21;;;;;;;1.88;0.47;;;;;;;;;;5011667;28;20037;-78
2021/07/05 03:32:46;;;;;;;2.40;0.60;;;;;;;;;;4978746;28;20377;-78
2021/07/05 03:35:12;;;;;;;2.70;0.50;;;;;;;;;;4994920;28;20052;-78
2021/07/05 03:37:38;;;;;;;2.10;0.50;;;;;;;;;;4995114;28;20049;-78
2021/07/05 03:40:05;;;;;;;1.85;0.50;;;;;;;;;;4995133;28;20129;-79
2021/07/05 03:42:30;;;;;;;2.92;0.50;;;;;;;;;;4994851;28;20038;-78
2021/07/05 03:44:56;;;;;;;1.75;0.40;;;;;;;;;;5011566;28;20148;-78
2021/07/05 03:47:21;;;;;;;1.10;0.50;;;;;;;;;;5011058;28;20121;-78
2021/07/05 03:49:46;;;;;;;1.65;0.50;;;;;;;;;;5004591;28;20030;-78
2021/07/05 03:52:12;;;;;;;1.27;0.55;;;;;;;;;;5014421;28;20044;-76
2021/07/05 03:54:37;;;;;;;1.25;0.60;;;;;;;;;;5013553;28;20033;-76
2021/07/05 03:57:04;;;;;;;1.48;0.45;;;;;;;;;;5014876;28;20108;-76
2021/07/05 03:59:30;;;;;;;2.03;0.70;;;;;;;;;;5014243;28;20021;-77
2021/07/05 04:01:55;;;;;;;1.10;0.50;;;;;;;;;;5013892;28;20052;-76
2021/07/05 04:04:21;;;;;;;2.13;0.60;;;;;;;;;;4997510;28;20059;-76
2021/07/05 04:06:46;;;;;;;1.73;0.70;;;;;;;;;;5013905;28;20037;-75
2021/07/05 04:09:12;;;;;;;2.70;0.60;;;;;;;;;;4997722;28;20120;-76
2021/07/05 04:11:37;;;;;;;1.63;0.57;;;;;;;;;;5030840;28;20045;-76
2021/07/05 04:14:03;;;;;;;1.75;0.90;;;;;;;;;;5014044;28;20086;-76
2021/07/05 04:16:28;;;;;;;1.00;0.43;;;;;;;;;;4997696;28;20033;-76
2021/07/05 04:18:54;;;;;;;1.85;0.90;;;;;;;;;;4997822;28;20036;-76
2021/07/05 04:21:20;;;;;;;1.15;0.47;;;;;;;;;;4997940;28;20029;-76
2021/07/05 04:23:47;;;;;;;1.33;0.60;;;;;;;;;;5013776;28;20029;-76
2021/07/05 04:26:12;;;;;;;2.58;0.50;;;;;;;;;;5014047;28;20033;-76
2021/07/05 04:28:38;;;;;;;1.02;0.60;;;;;;;;;;5013944;28;20399;-76
2021/07/05 04:31:03;;;;;;;2.28;0.50;;;;;;;;;;5013924;28;20102;-76
2021/07/05 04:33:29;;;;;;;1.50;0.50;;;;;;;;;;4997386;28;20017;-76
2021/07/05 04:35:54;;;;;;;1.67;0.50;;;;;;;;;;4997335;28;20033;-76
2021/07/05 04:38:20;;;;;;;2.42;0.98;;;;;;;;;;4997352;28;20051;-76
2021/07/05 04:40:46;;;;;;;1.38;0.60;;;;;;;;;;4997830;28;20034;-77
2021/07/05 04:43:11;;;;;;;1.83;0.60;;;;;;;;;;4997868;28;20038;-76
2021/07/05 04:45:37;;;;;;;3.60;0.75;;;;;;;;;;5013835;28;20372;-76
2021/07/05 04:48:04;;;;;;;2.00;0.73;;;;;;;;;;5013956;28;20033;-76
2021/07/05 04:50:30;;;;;;;1.60;0.57;;;;;;;;;;5006369;28;20112;-76
2021/07/05 04:52:56;;;;;;;1.17;0.68;;;;;;;;;;4994145;28;20045;-76
2021/07/05 04:55:21;;;;;;;2.55;0.85;;;;;;;;;;4994145;28;20065;-76
2021/07/05 04:57:48;;;;;;;1.42;0.70;;;;;;;;;;5010720;28;20034;-76
2021/07/05 05:00:28;;;;;;;2.15;0.80;;;;;;;;;;5010724;28;20037;-76
2021/07/05 05:02:53;;;;;;;2.17;0.73;;;;;;;;;;4982013;28;20033;-76
2021/07/05 05:05:20;;;;;;;1.77;0.68;;;;;;;;;;5013847;28;20037;-76
2021/07/05 05:07:48;;;;;;;2.15;0.90;;;;;;;;;;5034353;28;20037;-76
2021/07/05 05:10:14;;;;;;;2.10;0.77;;;;;;;;;;5017450;28;20041;-77
2021/07/05 05:12:48;;;;;;;2.10;0.80;;;;;;;;;;5033666;28;20101;-78
2021/07/05 05:15:20;;;;;;;2.10;0.65;;;;;;;;;;5007955;28;20088;-79
2021/07/05 05:17:46;;;;;;;2.30;0.95;;;;;;;;;;4997763;28;20557;-77
2021/07/05 05:20:13;;;;;;;2.40;0.65;;;;;;;;;;5014010;28;20037;-78
2021/07/05 05:22:39;;;;;;;3.58;0.73;;;;;;;;;;5001247;28;20045;-77
2021/07/05 05:25:10;;;;;;;1.45;0.55;;;;;;;;;;4997466;28;20506;-77
2021/07/05 05:27:38;;;;;;;2.28;0.77;;;;;;;;;;5013860;28;20034;-77
2021/07/05 05:30:06;;;;;;;3.33;0.70;;;;;;;;;;4997272;28;20040;-77
2021/07/05 05:32:31;;;;;;;2.47;0.90;;;;;;;;;;5013903;28;20034;-77
2021/07/05 05:34:57;;;;;;;3.97;0.70;;;;;;;;;;4997147;28;20109;-78
2021/07/05 05:37:22;;;;;;;2.58;0.77;;;;;;;;;;4980980;28;20030;-77
2021/07/05 05:39:47;;;;;;;3.05;0.70;;;;;;;;;;4997154;28;20060;-78
2021/07/05 05:42:13;;;;;;;1.98;1.00;;;;;;;;;;4997072;28;20022;-78
2021/07/05 05:44:39;;;;;;;2.60;0.90;;;;;;;;;;5010727;28;20099;-78
2021/07/05 05:47:04;;;;;;;3.95;1.00;;;;;;;;;;4994738;28;20500;-78
2021/07/05 05:49:29;;;;;;;6.28;0.90;;;;;;;;;;5019421;28;20029;-79
2021/07/05 05:51:55;;;;;;;6.82;1.00;;;;;;;;;;5016565;28;20052;-79
2021/07/05 05:54:20;;;;;;;3.75;1.25;;;;;;;;;;4999539;28;20039;-79
2021/07/05 05:56:51;;;;;;;2.08;0.82;;;;;;;;;;5016709;28;20041;-79
2021/07/05 05:59:17;;;;;;;3.17;1.10;;;;;;;;;;5033163;28;20037;-79
2021/07/05 06:01:48;;;;;;;7.03;1.00;;;;;;;;;;4999746;28;20113;-79
2021/07/05 06:04:13;;;;;;;2.78;0.95;;;;;;;;;;5001473;28;20029;-79
2021/07/05 06:06:40;;;;;;;6.60;1.00;;;;;;;;;;4999799;28;20104;-79
2021/07/05 06:09:05;;;;;;;2.92;0.95;;;;;;;;;;4999700;28;20402;-79
2021/07/05 06:11:31;;;;;;;6.05;1.70;;;;;;;;;;5016044;28;20025;-79
2021/07/05 06:13:56;;;;;;;3.58;0.95;;;;;;;;;;4999310;28;20491;-79
2021/07/05 06:16:23;;;;;;;4.38;1.17;;;;;;;;;;5016042;28;20036;-80
2021/07/05 06:18:48;;;;;;;3.70;1.00;;;;;;;;;;5015754;28;20029;-79
2021/07/05 06:21:13;;;;;;;5.07;1.00;;;;;;;;;;4999249;28;20392;-80
2021/07/05 06:23:39;;;;;;;4.57;1.27;;;;;;;;;;5013552;28;20403;-80
2021/07/05 06:26:05;;;;;;;4.53;0.90;;;;;;;;;;5013795;28;20037;-80
2021/07/05 06:28:32;;;;;;;3.30;0.85;;;;;;;;;;5015628;28;20107;-80
2021/07/05 06:30:58;;;;;;;4.60;1.00;;;;;;;;;;5016042;28;20049;-80
2021/07/05 06:33:23;;;;;;;6.00;0.93;;;;;;;;;;4997609;28;20463;-79
2021/07/05 06:35:49;;;;;;;2.05;0.70;;;;;;;;;;4997074;28;20033;-79
2021/07/05 06:38:15;;;;;;;3.10;1.60;;;;;;;;;;4997676;28;20442;-79
2021/07/05 06:40:41;;;;;;;5.43;1.00;;;;;;;;;;4999240;28;20040;-79
2021/07/05 06:43:06;;;;;;;3.90;0.77;;;;;;;;;;4999203;28;20107;-80
2021/07/05 06:45:32;;;;;;;4.43;0.77;;;;;;;;;;5015581;28;20507;-80
2021/07/05 06:47:58;;;;;;;2.00;0.60;;;;;;;;;;4999096;28;20079;-80
2021/07/05 06:50:23;;;;;;;4.22;0.93;;;;;;;;;;4998574;28;20463;-79
2021/07/05 06:52:49;;;;;;;4.45;1.52;;;;;;;;;;5015153;28;20030;-79
2021/07/05 06:55:14;;;;;;;2.50;1.17;;;;;;;;;;5006251;28;20454;-79
2021/07/05 06:57:41;;;;;;;4.03;0.82;;;;;;;;;;5028325;28;20376;-80
2021/07/05 07:00:09;;;;;;;3.42;1.50;;;;;;;;;;5000753;28;20483;-80
2021/07/05 07:02:36;;;;;;;4.13;1.55;;;;;;;;;;5005379;28;20076;-80
2021/07/05 07:05:01;;;;;;;3.97;1.92;;;;;;;;;;4987895;28;20018;-79
2021/07/05 07:07:27;;;;;;;4.43;1.95;;;;;;;;;;4998659;28;20037;-80
2021/07/05 07:09:52;;;;;;;4.30;2.05;;;;;;;;;;4995302;28;20038;-79
2021/07/05 07:12:18;;;;;;;5.40;3.05;;;;;;;;;;4994789;28;20096;-80
2021/07/05 07:14:43;;;;;;;6.15;2.30;;;;;;;;;;4995109;28;20038;-80
2021/07/05 07:17:18;;;;;;;4.70;2.33;;;;;;;;;;4995161;28;20036;-81
2021/07/05 07:19:43;;;;;;;5.60;2.25;;;;;;;;;;4981261;28;20045;-81
2021/07/05 07:22:09;;;;;;;3.58;2.20;;;;;;;;;;4995479;28;20096;-80
2021/07/05 07:24:34;;;;;;;5.63;2.33;;;;;;;;;;5014900;28;20049;-78
2021/07/05 07:27:00;;;;;;;6.15;2.38;;;;;;;;;;4998032;28;20083;-79
2021/07/05 07:29:26;;;;;;;3.78;2.15;;;;;;;;;;5011525;28;20033;-79
2021/07/05 07:31:53;;;;;;;5.13;2.28;;;;;;;;;;4997721;28;20034;-80
2021/07/05 07:34:19;;;;;;;4.90;1.83;;;;;;;;;;4998754;28;20395;-80
2021/07/05 07:36:44;;;;;;;5.50;2.00;;;;;;;;;;4981350;28;20025;-80
2021/07/05 07:39:16;;;;;;;3.35;1.70;;;;;;;;;;4998156;28;20033;-81
2021/07/05 07:41:42;;;;;;;4.93;2.00;;;;;;;;;;4999584;28;20045;-80
2021/07/05 07:44:07;;;;;;;3.92;1.50;;;;;;;;;;5014916;28;20626;-80
2021/07/05 07:46:33;;;;;;;3.88;1.58;;;;;;;;;;4997948;28;20051;-81
2021/07/05 07:48:58;;;;;;;3.80;1.80;;;;;;;;;;5013926;28;20037;-81
2021/07/05 07:51:25;;;;;;;3.80;1.30;;;;;;;;;;5014415;28;20035;-82
2021/07/05 07:53:52;;;;;;;3.20;1.30;;;;;;;;;;5030378;28;20052;-82
2021/07/05 07:56:18;;;;;;;4.13;1.45;;;;;;;;;;5014072;28;20125;-81
2021/07/05 07:58:45;;;;;;;2.83;1.40;;;;;;;;;;5014486;28;20036;-80
2021/07/05 08:01:11;;;;;;;2.15;1.10;;;;;;;;;;4997600;28;20042;-80
2021/07/05 08:03:36;;;;;;;2.53;1.30;;;;;;;;;;4997425;28;20113;-80
2021/07/05 08:06:02;;;;;;;3.55;1.63;;;;;;;;;;4997701;28;20030;-80
2021/07/05 08:08:27;;;;;;;3.53;1.45;;;;;;;;;;5013998;28;20033;-80
2021/07/05 08:10:56;;;;;;;5.43;1.38;;;;;;;;;;4998268;28;20033;-81
2021/07/05 08:13:21;;;;;;;4.85;1.20;;;;;;;;;;4998360;28;20026;-80
2021/07/05 08:15:48;;;;;;;2.92;1.10;;;;;;;;;;4996954;28;20119;-79
2021/07/05 08:18:14;;;;;;;3.67;0.88;;;;;;;;;;4995520;28;20045;-80
2021/07/05 08:20:39;;;;;;;2.95;0.70;;;;;;;;;;4995749;28;20094;-80
2021/07/05 08:23:05;;;;;;;3.25;1.00;;;;;;;;;;4993367;28;20037;-79
2021/07/05 08:25:30;;;;;;;3.63;0.93;;;;;;;;;;5010392;28;20042;-80
2021/07/05 08:27:56;;;;;;;3.25;0.88;;;;;;;;;;5010875;28;20621;-80
2021/07/05 08:30:22;;;;;;;3.03;0.90;;;;;;;;;;4994134;28;20033;-80
2021/07/05 08:32:48;;;;;;;6.53;0.80;;;;;;;;;;4994013;28;20037;-80
2021/07/05 08:35:14;;;;;;;5.05;1.20;;;;;;;;;;5010207;28;20073;-80
2021/07/05 08:37:39;;;;;;;6.75;1.90;;;;;;;;;;4994120;28;20466;-80
2021/07/05 08:40:06;;;;;;;4.32;0.90;;;;;;;;;;4993914;28;20037;-80
2021/07/05 08:42:32;;;;;;;4.50;1.10;;;;;;;;;;4998309;28;20033;-80
2021/07/05 08:44:57;;;;;;;3.78;0.85;;;;;;;;;;5014440;28;20045;-80
2021/07/05 08:47:23;;;;;;;4.05;0.93;;;;;;;;;;4998210;28;20034;-79
2021/07/05 08:49:49;;;;;;;2.63;0.60;;;;;;;;;;5017645;28;20061;-80
2021/07/05 08:52:14;;;;;;;4.05;0.80;;;;;;;;;;5017196;28;20040;-80
2021/07/05 08:54:40;;;;;;;4.65;0.80;;;;;;;;;;5000762;28;20107;-80
2021/07/05 08:57:05;;;;;;;6.10;1.05;;;;;;;;;;5000064;28;20044;-80
2021/07/05 08:59:36;;;;;;;2.97;0.80;;;;;;;;;;5015744;28;20116;-80
2021/07/05 09:02:02;;;;;;;2.95;0.77;;;;;;;;;;4997048;28;20029;-80
2021/07/05 09:04:27;;;;;;;2.92;0.70;;;;;;;;;;5015566;28;20022;-80
2021/07/05 09:07:07;;;;;;;3.75;1.20;;;;;;;;;;5014007;28;20469;-80
2021/07/05 09:09:35;;;;;;;3.30;1.00;;;;;;;;;;4997262;28;20022;-80
2021/07/05 09:12:07;;;;;;;3.05;0.90;;;;;;;;;;5013878;28;20038;-80
2021/07/05 09:14:33;;;;;;;;;;;;;;;;;;5033554;28;20031;-80
2021/07/05 09:16:58;;;;;;;3.03;0.90;;;;;;;;;;5033916;28;19909;-79
2021/07/05 09:19:29;;;;;;;5.45;0.80;;;;;;;;;;5017430;28;20029;-79
2021/07/05 09:21:55;;;;;;;4.38;0.93;;;;;;;;;;5000997;28;20032;-80
2021/07/05 09:24:27;;;;;;;4.10;1.15;;;;;;;;;;5033331;28;20065;-80
2021/07/05 09:27:18;;;;;;;4.70;0.82;;;;;;;;;;5016828;28;20034;-80
2021/07/05 09:29:44;;;;;;;4.40;0.90;;;;;;;;;;5019609;28;20033;-80
2021/07/05 09:32:26;;;;;;;3.83;1.17;;;;;;;;;;5000107;28;20104;-81
2021/07/05 09:34:52;;;;;;;4.70;1.02;;;;;;;;;;5019123;28;20037;-80
2021/07/05 09:37:26;;;;;;;2.35;0.80;;;;;;;;;;5017081;28;20060;-80
2021/07/05 09:40:00;;;;;;;2.30;0.88;;;;;;;;;;5000731;28;20510;-80
2021/07/05 09:42:26;;;;;;;2.75;0.90;;;;;;;;;;5033389;28;20037;-79
2021/07/05 09:44:52;;;;;;;3.83;1.42;;;;;;;;;;5000584;28;20111;-80
2021/07/05 09:47:17;;;;;;;4.07;1.08;;;;;;;;;;5000162;28;20036;-80
2021/07/05 09:49:43;;;;;;;3.10;1.10;;;;;;;;;;5000204;28;20060;-80
2021/07/05 09:52:14;;;;;;;2.78;0.77;;;;;;;;;;4999037;28;20056;-80
2021/07/05 09:54:48;;;;;;;4.60;0.67;;;;;;;;;;5012222;28;20034;-81
2021/07/05 09:57:27;;;;;;;2.22;0.73;;;;;;;;;;4998027;28;20315;-81
2021/07/05 10:00:08;;;;;;;3.05;0.80;;;;;;;;;;5014952;28;20038;-81
2021/07/05 10:02:36;;;;;;;3.83;0.82;;;;;;;;;;5031315;28;20069;-80
2021/07/05 10:05:15;;;;;;;4.00;0.95;;;;;;;;;;5029516;28;20046;-80
2021/07/05 10:07:41;;;;;;;4.00;1.25;;;;;;;;;;5015799;28;20044;-80
2021/07/05 10:10:12;;;;;;;2.15;0.82;;;;;;;;;;4999455;28;20038;-81
2021/07/05 10:12:37;;;;;;;3.47;1.13;;;;;;;;;;5000270;28;20487;-80
2021/07/05 10:15:05;;;;;;;3.03;0.95;;;;;;;;;;4999733;28;20052;-80
2021/07/05 10:17:32;;;;;;;2.95;1.30;;;;;;;;;;4980224;28;20026;-80
2021/07/05 10:19:58;;;;;;;4.55;0.90;;;;;;;;;;5000070;28;20071;-80
2021/07/05 10:22:23;;;;;;;3.65;1.30;;;;;;;;;;4999310;28;20496;-80
2021/07/05 10:24:49;;;;;;;3.90;1.00;;;;;;;;;;5016237;28;20442;-80
2021/07/05 10:27:15;;;;;;;4.93;1.52;;;;;;;;;;5015558;28;20491;-81
2021/07/05 10:29:41;;;;;;;2.42;1.33;;;;;;;;;;5000011;28;20059;-80
2021/07/05 10:32:07;;;;;;;3.40;1.23;;;;;;;;;;4999904;28;20057;-81
2021/07/05 10:34:33;;;;;;;2.40;1.17;;;;;;;;;;5015623;28;20025;-80
2021/07/05 10:36:59;;;;;;;5.15;1.52;;;;;;;;;;5012012;28;20467;-80
2021/07/05 10:39:25;;;;;;;2.20;1.10;;;;;;;;;;5015368;28;20035;-80
2021/07/05 10:41:50;;;;;;;2.58;0.95;;;;;;;;;;4999583;28;20391;-80
2021/07/05 10:44:20;;;;;;;3.83;1.17;;;;;;;;;;4999544;28;20391;-80
2021/07/05 10:46:53;;;;;;;4.05;1.48;;;;;;;;;;4999814;28;20029;-80
2021/07/05 10:49:28;;;;;;;4.50;1.33;;;;;;;;;;5017915;28;20041;-80
2021/07/05 10:51:55;;;;;;;5.15;1.08;;;;;;;;;;5018226;28;20044;-80
2021/07/05 10:54:57;;;;;;;3.30;1.23;;;;;;;;;;5014773;28;20068;-80
2021/07/05 10:57:32;;;;;;;3.88;1.15;;;;;;;;;;5012189;28;20104;-80
2021/07/05 11:00:18;;;;;;;3.00;0.85;;;;;;;;;;5028254;28;20056;-80
2021/07/05 11:02:44;;;;;;;2.63;0.80;;;;;;;;;;5031198;28;20065;-79
2021/07/05 11:05:31;;;;;;;2.95;0.90;;;;;;;;;;4996177;28;20060;-80
2021/07/05 11:08:15;;;;;;;2.13;0.93;;;;;;;;;;5013740;28;20395;-79
2021/07/05 11:10:40;;;;;;;2.72;1.35;;;;;;;;;;5013976;28;20192;-79
2021/07/05 11:13:06;;;;;;;4.53;1.38;;;;;;;;;;4982140;28;20037;-79
2021/07/05 11:15:48;;;;;;;2.80;0.80;;;;;;;;;;4996375;28;20038;-80
2021/07/05 11:18:52;;;;;;;2.35;0.82;;;;;;;;;;5030867;28;20431;-79
2021/07/05 11:21:23;;;;;;;2.15;0.82;;;;;;;;;;5030436;28;20033;-79
2021/07/05 11:23:58;;;;;;;6.68;3.70;;;;;;;;;;5030135;28;20068;-79
2021/07/05 11:26:25;;;;;;;9.30;4.82;;;;;;;;;;5030840;28;20048;-79
2021/07/05 11:29:16;;;;;;;11.25;5.75;;;;;;;;;;5014658;28;20048;-79
2021/07/05 11:31:54;;;;;;;9.68;5.63;;;;;;;;;;5031320;28;20383;-79
2021/07/05 11:34:40;;;;;;;9.35;5.43;;;;;;;;;;5010482;28;20022;-79
2021/07/05 11:37:12;;;;;;;14.10;5.35;;;;;;;;;;4995339;28;20153;-79
2021/07/05 11:39:48;;;;;;;8.65;4.85;;;;;;;;;;5014006;28;20041;-79
2021/07/05 11:42:22;;;;;;;5.15;2.25;;;;;;;;;;5028327;28;20434;-79
2021/07/05 11:44:54;;;;;;;3.72;1.60;;;;;;;;;;5010505;28;20079;-79
2021/07/05 11:47:38;;;;;;;4.82;1.70;;;;;;;;;;5009669;28;20034;-79
2021/07/05 11:50:25;;;;;;;3.38;1.00;;;;;;;;;;5031536;28;20037;-79
2021/07/05 11:52:52;;;;;;;2.30;1.20;;;;;;;;;;5030425;28;20056;-79
2021/07/05 11:55:18;;;;;;;3.78;1.77;;;;;;;;;;4997594;28;20041;-79
2021/07/05 11:57:48;;;;;;;2.90;1.50;;;;;;;;;;4984183;28;20459;-79
2021/07/05 12:00:14;;;;;;;3.70;1.48;;;;;;;;;;4978733;28;20395;-79
2021/07/05 12:02:40;;;;;;;3.83;1.30;;;;;;;;;;5006852;28;20025;-79
2021/07/05 12:05:07;;;;;;;4.38;1.30;;;;;;;;;;5030372;28;20086;-80
2021/07/05 12:07:32;;;;;;;4.78;1.92;;;;;;;;;;5014031;28;20407;-79
2021/07/05 12:09:57;;;;;;;3.97;1.38;;;;;;;;;;5014264;28;20033;-79
2021/07/05 12:12:23;;;;;;;2.70;1.17;;;;;;;;;;4997868;28;20030;-80
2021/07/05 12:14:49;;;;;;;3.30;1.65;;;;;;;;;;5013696;28;20069;-79
2021/07/05 12:17:16;;;;;;;4.10;1.55;;;;;;;;;;5013636;28;20060;-79
2021/07/05 12:19:43;;;;;;;6.05;2.28;;;;;;;;;;4997339;28;20433;-79
2021/07/05 12:22:13;;;;;;;3.38;1.55;;;;;;;;;;4995783;28;20037;-79
2021/07/05 12:24:47;;;;;;;4.07;1.70;;;;;;;;;;4997443;28;20041;-80
2021/07/05 12:27:14;;;;;;;5.15;1.60;;;;;;;;;;5014003;28;20057;-79
2021/07/05 12:29:46;;;;;;;5.07;1.60;;;;;;;;;;5014035;28;20029;-79
2021/07/05 12:32:14;;;;;;;2.63;1.52;;;;;;;;;;4998207;28;20128;-79
2021/07/05 12:35:00;;;;;;;4.05;1.50;;;;;;;;;;4998106;28;20038;-78
2021/07/05 12:37:41;;;;;;;3.55;1.60;;;;;;;;;;5013812;28;20030;-79
2021/07/05 12:40:24;;;;;;;3.55;1.92;;;;;;;;;;4994217;28;20030;-79
2021/07/05 12:43:09;;;;;;;3.45;1.35;;;;;;;;;;5003023;28;20044;-80
2021/07/05 12:45:43;;;;;;;3.53;1.58;;;;;;;;;;5014399;28;20030;-79
2021/07/05 12:48:20;;;;;;;2.85;1.30;;;;;;;;;;5012618;28;20095;-79
2021/07/05 12:50:45;;;;;;;3.17;1.33;;;;;;;;;;5012997;28;20025;-79
2021/07/05 12:53:11;;;;;;;4.65;1.70;;;;;;;;;;5019615;28;20484;-79
2021/07/05 12:55:38;;;;;;;3.42;1.65;;;;;;;;;;5029394;28;20104;-80
2021/07/05 12:58:04;;;;;;;3.22;1.30;;;;;;;;;;4980915;28;20179;-79
2021/07/05 13:00:30;;;;;;;3.90;1.33;;;;;;;;;;5013278;28;20479;-79
2021/07/05 13:03:10;;;;;;;2.55;1.00;;;;;;;;;;5013470;28;20060;-79
2021/07/05 13:05:35;;;;;;;3.65;0.90;;;;;;;;;;4996387;28;20029;-79
2021/07/05 13:08:01;;;;;;;4.40;1.20;;;;;;;;;;5014024;28;20179;-79
2021/07/05 13:10:29;;;;;;;2.70;1.30;;;;;;;;;;5013637;28;20034;-79
2021/07/05 13:12:56;;;;;;;6.47;1.25;;;;;;;;;;5013461;28;20056;-79
2021/07/05 13:15:22;;;;;;;3.17;1.00;;;;;;;;;;5013217;28;20033;-79
2021/07/05 13:17:48;;;;;;;1.77;0.90;;;;;;;;;;4995442;28;20470;-79
2021/07/05 13:20:18;;;;;;;5.18;1.08;;;;;;;;;;5013182;28;20388;-80
2021/07/05 13:22:57;;;;;;;2.40;0.90;;;;;;;;;;5013191;28;20037;-80
2021/07/05 13:25:23;;;;;;;2.65;0.90;;;;;;;;;;4994627;28;20038;-79
2021/07/05 13:27:49;;;;;;;2.90;1.10;;;;;;;;;;4994959;28;20030;-80
2021/07/05 13:30:20;;;;;;;4.10;1.13;;;;;;;;;;4997397;28;20044;-79
2021/07/05 13:33:01;;;;;;;4.82;1.55;;;;;;;;;;5011545;28;20087;-79
2021/07/05 13:35:31;;;;;;;3.35;1.05;;;;;;;;;;5033221;28;20052;-79
2021/07/05 13:37:59;;;;;;;1.65;0.80;;;;;;;;;;5001167;28;20037;-80
2021/07/05 13:40:25;;;;;;;2.15;0.75;;;;;;;;;;5015987;28;20026;-80
2021/07/05 13:42:53;;;;;;;2.10;0.68;;;;;;;;;;5016430;28;20117;-79
2021/07/05 13:45:24;;;;;;;1.67;1.02;;;;;;;;;;5016461;28;20033;-80
2021/07/05 13:47:54;;;;;;;3.40;0.90;;;;;;;;;;5016772;28;20091;-80
2021/07/05 13:50:21;;;;;;;4.07;1.13;;;;;;;;;;5032894;28;20033;-80
2021/07/05 13:52:54;;;;;;;1.95;0.70;;;;;;;;;;5032460;28;20056;-79
2021/07/05 13:56:00;;;;;;;2.88;0.70;;;;;;;;;;5033120;28;20455;-79
2021/07/05 13:58:35;;;;;;;2.20;1.33;;;;;;;;;;5033546;28;20112;-79
2021/07/05 14:01:02;;;;;;;1.90;0.80;;;;;;;;;;5016730;28;20036;-79
2021/07/05 14:03:28;;;;;;;3.35;1.17;;;;;;;;;;5016151;28;20041;-78
2021/07/05 14:05:55;;;;;;;2.00;0.75;;;;;;;;;;4999861;28;20053;-79
2021/07/05 14:08:21;;;;;;;2.47;0.90;;;;;;;;;;4982964;28;20113;-79
2021/07/05 14:10:48;;;;;;;2.25;0.80;;;;;;;;;;5016309;28;20033;-79
2021/07/05 14:13:15;;;;;;;2.17;0.95;;;;;;;;;;4996517;28;20076;-79
2021/07/05 14:15:41;;;;;;;2.67;0.80;;;;;;;;;;5015631;28;20025;-80
2021/07/05 14:18:07;;;;;;;4.28;1.05;;;;;;;;;;4999574;28;20037;-83
2021/07/05 14:20:32;;;;;;;2.55;0.90;;;;;;;;;;5015783;28;20030;-81
2021/07/05 14:22:58;;;;;;;2.92;0.80;;;;;;;;;;4999017;28;20044;-80
2021/07/05 14:25:24;;;;;;;3.33;0.70;;;;;;;;;;5015921;28;20037;-80
2021/07/05 14:27:50;;;;;;;2.40;0.70;;;;;;;;;;5015608;28;20033;-80
2021/07/05 14:30:16;;;;;;;2.28;0.95;;;;;;;;;;4999462;28;20099;-79
2021/07/05 14:32:41;;;;;;;5.75;1.00;;;;;;;;;;4998912;28;20061;-79
2021/07/05 14:35:08;;;;;;;4.57;1.60;;;;;;;;;;5031824;28;20377;-81
2021/07/05 14:37:34;;;;;;;2.55;1.00;;;;;;;;;;5015646;28;20029;-82
2021/07/05 14:39:59;;;;;;;2.30;1.00;;;;;;;;;;5015000;28;20025;-81
2021/07/05 14:42:25;;;;;;;1.70;0.80;;;;;;;;;;5015145;28;20048;-83
2021/07/05 14:44:50;;;;;;;3.45;1.05;;;;;;;;;;5015588;28;20534;-82
2021/07/05 14:47:16;;;;;;;2.67;0.90;;;;;;;;;;5031598;28;20037;-82